Anton, Texas
Current Conditions -  °F | °C
As of 5:53 AM on Thursday 23 Oct 2014 (Local Time) from KLBB Reporting Station
Haze Haze  
Wind Chill: 52°   Ceiling: Unl
Heat Index: 52°   Visibility: 6mi
Dew Point: 50°   Wind: 5mph
Humidity: 93%   Direction: 200°SSW
Pressure: 30.11"   Gusts: NA
Location:  33.81°N, 102.16°W
Report Text: KLBB 231053Z 20004KT 6SM BR CLR 11/10 A3011 RMK AO2 SLP169 T01110100 $
Loading
Personal Weather Stations






























Interactive Weather Map
Tropical Storm Tracking
New forecast layout! Learn more

10-Day Weather Forecast

Advertisements
Track Severe Weather on mobile